sensor_id;sensor_type;location;lat;lon;timestamp;temperature;humidity
15203;DHT22;7702;51.046;5.184;2022-07-05T13:17:44;23.40;99.90
15203;DHT22;7702;51.046;5.184;2022-07-05T13:20:10;23.40;99.90
15203;DHT22;7702;51.046;5.184;2022-07-05T13:22:36;23.30;99.90
15203;DHT22;7702;51.046;5.184;2022-07-05T13:25:02;23.30;99.90
15203;DHT22;7702;51.046;5.184;2022-07-05T13:27:29;23.60;99.90
15203;DHT22;7702;51.046;5.184;2022-07-05T13:29:55;24.10;99.90
15203;DHT22;7702;51.046;5.184;2022-07-05T13:32:20;24.80;99.90
15203;DHT22;7702;51.046;5.184;2022-07-05T13:34:47;24.60;99.90
15203;DHT22;7702;51.046;5.184;2022-07-05T13:37:14;24.20;99.90
15203;DHT22;7702;51.046;5.184;2022-07-05T13:39:40;24.40;99.90
15203;DHT22;7702;51.046;5.184;2022-07-05T13:42:06;24.30;99.90
15203;DHT22;7702;51.046;5.184;2022-07-05T13:44:32;24.60;99.90
15203;DHT22;7702;51.046;5.184;2022-07-05T13:46:57;25.00;99.90
15203;DHT22;7702;51.046;5.184;2022-07-05T13:49:23;25.70;99.90
15203;DHT22;7702;51.046;5.184;2022-07-05T13:51:49;26.00;99.90
15203;DHT22;7702;51.046;5.184;2022-07-05T13:54:15;25.20;99.90
15203;DHT22;7702;51.046;5.184;2022-07-05T13:56:42;25.20;99.90
15203;DHT22;7702;51.046;5.184;2022-07-05T13:59:07;25.70;99.90
15203;DHT22;7702;51.046;5.184;2022-07-05T14:01:33;25.40;99.90
15203;DHT22;7702;51.046;5.184;2022-07-05T14:04:00;24.80;99.90
15203;DHT22;7702;51.046;5.184;2022-07-05T14:06:29;24.60;99.90
15203;DHT22;7702;51.046;5.184;2022-07-05T14:08:55;23.80;99.90
15203;DHT22;7702;51.046;5.184;2022-07-05T14:11:21;23.50;99.90
15203;DHT22;7702;51.046;5.184;2022-07-05T14:13:47;23.70;99.90
15203;DHT22;7702;51.046;5.184;2022-07-05T14:16:12;23.60;99.90
15203;DHT22;7702;51.046;5.184;2022-07-05T14:18:38;23.30;99.90
15203;DHT22;7702;51.046;5.184;2022-07-05T14:21:05;23.10;99.90
15203;DHT22;7702;51.046;5.184;2022-07-05T14:23:31;22.90;99.90
15203;DHT22;7702;51.046;5.184;2022-07-05T14:25:59;22.60;99.90
15203;DHT22;7702;51.046;5.184;2022-07-05T14:28:26;22.80;99.90
15203;DHT22;7702;51.046;5.184;2022-07-05T14:30:52;23.10;99.90
15203;DHT22;7702;51.046;5.184;2022-07-05T14:33:18;22.70;99.90
15203;DHT22;7702;51.046;5.184;2022-07-05T14:35:44;22.50;99.90
15203;DHT22;7702;51.046;5.184;2022-07-05T14:38:10;22.40;99.90
15203;DHT22;7702;51.046;5.184;2022-07-05T14:40:36;22.20;99.90
15203;DHT22;7702;51.046;5.184;2022-07-05T14:43:02;22.40;99.90
15203;DHT22;7702;51.046;5.184;2022-07-05T14:45:28;22.80;99.90
15203;DHT22;7702;51.046;5.184;2022-07-05T14:47:55;23.10;99.90
15203;DHT22;7702;51.046;5.184;2022-07-05T14:50:21;23.30;99.90
15203;DHT22;7702;51.046;5.184;2022-07-05T14:52:47;24.40;99.90
15203;DHT22;7702;51.046;5.184;2022-07-05T14:55:13;24.40;99.90
15203;DHT22;7702;51.046;5.184;2022-07-05T14:57:40;24.00;99.90
15203;DHT22;7702;51.046;5.184;2022-07-05T15:00:12;23.40;99.90
15203;DHT22;7702;51.046;5.184;2022-07-05T15:02:38;22.60;99.90
15203;DHT22;7702;51.046;5.184;2022-07-05T15:05:05;22.50;99.90
15203;DHT22;7702;51.046;5.184;2022-07-05T15:07:31;23.30;99.90
15203;DHT22;7702;51.046;5.184;2022-07-05T15:09:57;24.20;99.90
15203;DHT22;7702;51.046;5.184;2022-07-05T15:12:23;23.90;99.90
15203;DHT22;7702;51.046;5.184;2022-07-05T15:14:49;24.00;99.90
15203;DHT22;7702;51.046;5.184;2022-07-05T15:17:15;24.00;99.90
15203;DHT22;7702;51.046;5.184;2022-07-05T15:19:41;23.40;99.90
15203;DHT22;7702;51.046;5.184;2022-07-05T15:22:07;23.80;99.90
15203;DHT22;7702;51.046;5.184;2022-07-05T15:24:33;23.70;99.90
15203;DHT22;7702;51.046;5.184;2022-07-05T15:27:00;23.40;99.90
15203;DHT22;7702;51.046;5.184;2022-07-05T15:29:26;22.80;99.90
15203;DHT22;7702;51.046;5.184;2022-07-05T15:31:54;22.00;99.90
15203;DHT22;7702;51.046;5.184;2022-07-05T15:34:20;22.20;99.90
15203;DHT22;7702;51.046;5.184;2022-07-05T15:36:45;22.70;99.90
15203;DHT22;7702;51.046;5.184;2022-07-05T15:39:12;23.00;99.90
15203;DHT22;7702;51.046;5.184;2022-07-05T15:41:38;23.50;99.90
15203;DHT22;7702;51.046;5.184;2022-07-05T15:44:04;23.20;99.90
15203;DHT22;7702;51.046;5.184;2022-07-05T15:46:30;22.90;99.90
15203;DHT22;7702;51.046;5.184;2022-07-05T15:49:16;22.80;99.90
15203;DHT22;7702;51.046;5.184;2022-07-05T15:51:42;22.50;99.90
15203;DHT22;7702;51.046;5.184;2022-07-05T15:54:08;22.20;99.90
15203;DHT22;7702;51.046;5.184;2022-07-05T15:56:34;22.30;99.90
15203;DHT22;7702;51.046;5.184;2022-07-05T15:59:00;22.40;99.90
15203;DHT22;7702;51.046;5.184;2022-07-05T16:01:26;22.30;99.90
15203;DHT22;7702;51.046;5.184;2022-07-05T16:03:52;22.70;99.90
15203;DHT22;7702;51.046;5.184;2022-07-05T16:06:17;23.50;99.90
15203;DHT22;7702;51.046;5.184;2022-07-05T16:08:43;23.00;99.90
15203;DHT22;7702;51.046;5.184;2022-07-05T16:11:09;23.00;99.90
15203;DHT22;7702;51.046;5.184;2022-07-05T16:13:34;23.50;99.90
15203;DHT22;7702;51.046;5.184;2022-07-05T16:16:00;24.00;99.90
15203;DHT22;7702;51.046;5.184;2022-07-05T16:18:39;23.70;99.90
15203;DHT22;7702;51.046;5.184;2022-07-05T16:21:07;24.00;99.90
15203;DHT22;7702;51.046;5.184;2022-07-05T16:23:35;24.10;99.90
15203;DHT22;7702;51.046;5.184;2022-07-05T16:26:02;24.20;99.90
15203;DHT22;7702;51.046;5.184;2022-07-05T16:28:28;23.30;99.90
15203;DHT22;7702;51.046;5.184;2022-07-05T16:30:58;22.60;99.90
15203;DHT22;7702;51.046;5.184;2022-07-05T16:33:29;22.50;99.90
15203;DHT22;7702;51.046;5.184;2022-07-05T16:35:56;22.30;99.90
15203;DHT22;7702;51.046;5.184;2022-07-05T16:38:22;22.50;99.90
15203;DHT22;7702;51.046;5.184;2022-07-05T16:40:48;22.60;99.90
15203;DHT22;7702;51.046;5.184;2022-07-05T16:43:13;23.00;99.90
15203;DHT22;7702;51.046;5.184;2022-07-05T16:45:39;23.20;99.90
15203;DHT22;7702;51.046;5.184;2022-07-05T16:48:05;22.40;99.90
15203;DHT22;7702;51.046;5.184;2022-07-05T16:50:30;22.10;99.90
15203;DHT22;7702;51.046;5.184;2022-07-05T16:52:56;22.10;99.90
15203;DHT22;7702;51.046;5.184;2022-07-05T16:55:22;22.40;99.90
15203;DHT22;7702;51.046;5.184;2022-07-05T16:57:47;22.40;99.90
15203;DHT22;7702;51.046;5.184;2022-07-05T17:00:14;22.20;99.90
15203;DHT22;7702;51.046;5.184;2022-07-05T17:02:40;21.80;99.90
15203;DHT22;7702;51.046;5.184;2022-07-05T17:05:06;21.40;99.90
15203;DHT22;7702;51.046;5.184;2022-07-05T17:07:31;21.40;99.90
15203;DHT22;7702;51.046;5.184;2022-07-05T17:09:58;21.60;99.90
15203;DHT22;7702;51.046;5.184;2022-07-05T17:12:24;21.60;99.90
15203;DHT22;7702;51.046;5.184;2022-07-05T17:14:49;21.20;99.90
15203;DHT22;7702;51.046;5.184;2022-07-05T17:17:15;21.10;99.90
15203;DHT22;7702;51.046;5.184;2022-07-05T17:19:41;21.30;99.90
15203;DHT22;7702;51.046;5.184;2022-07-05T17:22:07;21.30;99.90
15203;DHT22;7702;51.046;5.184;2022-07-05T17:24:32;21.40;99.90
15203;DHT22;7702;51.046;5.184;2022-07-05T17:26:58;21.20;99.90
15203;DHT22;7702;51.046;5.184;2022-07-05T17:29:24;21.20;99.90
15203;DHT22;7702;51.046;5.184;2022-07-05T17:31:50;21.10;99.90
15203;DHT22;7702;51.046;5.184;2022-07-05T17:34:15;21.20;99.90
15203;DHT22;7702;51.046;5.184;2022-07-05T17:36:42;21.40;99.90
15203;DHT22;7702;51.046;5.184;2022-07-05T17:39:08;21.40;99.90
15203;DHT22;7702;51.046;5.184;2022-07-05T17:41:33;21.30;99.90
15203;DHT22;7702;51.046;5.184;2022-07-05T17:43:59;21.30;99.90
15203;DHT22;7702;51.046;5.184;2022-07-05T17:46:25;21.50;99.90
15203;DHT22;7702;51.046;5.184;2022-07-05T17:48:52;21.70;99.90
15203;DHT22;7702;51.046;5.184;2022-07-05T17:51:18;21.80;99.90
15203;DHT22;7702;51.046;5.184;2022-07-05T17:53:44;21.50;99.90
15203;DHT22;7702;51.046;5.184;2022-07-05T17:56:11;21.40;99.90
15203;DHT22;7702;51.046;5.184;2022-07-05T17:58:38;20.90;99.90
15203;DHT22;7702;51.046;5.184;2022-07-05T18:01:06;20.50;99.90
15203;DHT22;7702;51.046;5.184;2022-07-05T18:03:31;20.60;99.90
15203;DHT22;7702;51.046;5.184;2022-07-05T18:05:57;20.50;99.90
15203;DHT22;7702;51.046;5.184;2022-07-05T18:08:23;20.30;99.90
15203;DHT22;7702;51.046;5.184;2022-07-05T18:10:48;20.00;99.90
15203;DHT22;7702;51.046;5.184;2022-07-05T18:13:14;19.80;99.90
15203;DHT22;7702;51.046;5.184;2022-07-05T18:15:40;19.80;99.90
15203;DHT22;7702;51.046;5.184;2022-07-05T18:18:07;19.70;99.90
15203;DHT22;7702;51.046;5.184;2022-07-05T18:20:34;19.70;99.90
15203;DHT22;7702;51.046;5.184;2022-07-05T18:23:01;19.60;99.90
15203;DHT22;7702;51.046;5.184;2022-07-05T18:25:26;19.50;99.90
15203;DHT22;7702;51.046;5.184;2022-07-05T18:27:52;19.30;99.90
15203;DHT22;7702;51.046;5.184;2022-07-05T18:30:18;19.20;99.90
15203;DHT22;7702;51.046;5.184;2022-07-05T18:32:44;19.10;99.90
15203;DHT22;7702;51.046;5.184;2022-07-05T18:35:11;19.00;99.90
15203;DHT22;7702;51.046;5.184;2022-07-05T18:37:37;19.00;99.90
15203;DHT22;7702;51.046;5.184;2022-07-05T18:40:04;18.90;99.90
15203;DHT22;7702;51.046;5.184;2022-07-05T18:42:31;18.90;99.90
15203;DHT22;7702;51.046;5.184;2022-07-05T18:44:56;18.70;99.90
15203;DHT22;7702;51.046;5.184;2022-07-05T18:47:22;18.70;99.90
15203;DHT22;7702;51.046;5.184;2022-07-05T18:49:49;18.70;99.90
15203;DHT22;7702;51.046;5.184;2022-07-05T18:52:16;18.70;99.90
15203;DHT22;7702;51.046;5.184;2022-07-05T18:54:43;18.70;99.90
15203;DHT22;7702;51.046;5.184;2022-07-05T18:57:08;18.60;99.90
15203;DHT22;7702;51.046;5.184;2022-07-05T18:59:35;18.60;99.90
15203;DHT22;7702;51.046;5.184;2022-07-05T19:02:01;18.70;99.90
15203;DHT22;7702;51.046;5.184;2022-07-05T19:04:27;18.80;99.90
15203;DHT22;7702;51.046;5.184;2022-07-05T19:06:53;18.80;99.90
15203;DHT22;7702;51.046;5.184;2022-07-05T19:09:37;19.00;99.90
15203;DHT22;7702;51.046;5.184;2022-07-05T19:12:21;19.10;99.90
15203;DHT22;7702;51.046;5.184;2022-07-05T19:15:05;19.10;99.90
15203;DHT22;7702;51.046;5.184;2022-07-05T19:17:31;19.00;99.90
15203;DHT22;7702;51.046;5.184;2022-07-05T19:19:57;18.70;99.90
15203;DHT22;7702;51.046;5.184;2022-07-05T19:22:23;18.50;99.90
15203;DHT22;7702;51.046;5.184;2022-07-05T19:24:50;18.40;99.90
15203;DHT22;7702;51.046;5.184;2022-07-05T19:27:16;18.30;99.90
15203;DHT22;7702;51.046;5.184;2022-07-05T19:29:42;18.30;99.90
15203;DHT22;7702;51.046;5.184;2022-07-05T19:32:08;18.10;99.90
15203;DHT22;7702;51.046;5.184;2022-07-05T19:34:35;18.00;99.90
15203;DHT22;7702;51.046;5.184;2022-07-05T19:37:01;17.90;99.90
15203;DHT22;7702;51.046;5.184;2022-07-05T19:39:28;17.80;99.90
15203;DHT22;7702;51.046;5.184;2022-07-05T19:41:53;17.80;99.90
15203;DHT22;7702;51.046;5.184;2022-07-05T19:44:19;17.70;99.90
15203;DHT22;7702;51.046;5.184;2022-07-05T19:46:45;17.70;99.90
15203;DHT22;7702;51.046;5.184;2022-07-05T19:49:10;17.60;99.90
15203;DHT22;7702;51.046;5.184;2022-07-05T19:51:37;17.50;99.90
15203;DHT22;7702;51.046;5.184;2022-07-05T19:54:03;17.40;99.90
15203;DHT22;7702;51.046;5.184;2022-07-05T19:56:29;17.40;99.90
15203;DHT22;7702;51.046;5.184;2022-07-05T19:58:56;17.30;99.90
15203;DHT22;7702;51.046;5.184;2022-07-05T20:01:24;17.30;99.90
15203;DHT22;7702;51.046;5.184;2022-07-05T20:03:55;17.30;99.90
15203;DHT22;7702;51.046;5.184;2022-07-05T20:06:21;17.10;99.90
15203;DHT22;7702;51.046;5.184;2022-07-05T20:08:47;17.10;99.90
15203;DHT22;7702;51.046;5.184;2022-07-05T20:11:12;17.10;99.90
15203;DHT22;7702;51.046;5.184;2022-07-05T20:13:38;17.00;99.90
15203;DHT22;7702;51.046;5.184;2022-07-05T20:16:04;17.00;99.90
15203;DHT22;7702;51.046;5.184;2022-07-05T20:18:30;16.90;99.90
15203;DHT22;7702;51.046;5.184;2022-07-05T20:20:56;16.80;99.90
15203;DHT22;7702;51.046;5.184;2022-07-05T20:23:22;16.80;99.90
15203;DHT22;7702;51.046;5.184;2022-07-05T20:25:48;16.70;99.90
15203;DHT22;7702;51.046;5.184;2022-07-05T20:28:14;16.70;99.90
15203;DHT22;7702;51.046;5.184;2022-07-05T20:30:40;16.70;99.90
15203;DHT22;7702;51.046;5.184;2022-07-05T20:33:06;16.70;99.90
15203;DHT22;7702;51.046;5.184;2022-07-05T20:35:32;16.60;99.90
15203;DHT22;7702;51.046;5.184;2022-07-05T20:37:58;16.60;99.90
15203;DHT22;7702;51.046;5.184;2022-07-05T20:40:24;16.60;99.90
15203;DHT22;7702;51.046;5.184;2022-07-05T20:42:50;16.50;99.90
15203;DHT22;7702;51.046;5.184;2022-07-05T20:45:15;16.40;99.90
15203;DHT22;7702;51.046;5.184;2022-07-05T20:47:41;16.40;99.90
15203;DHT22;7702;51.046;5.184;2022-07-05T20:50:07;16.30;99.90
15203;DHT22;7702;51.046;5.184;2022-07-05T20:52:33;16.30;99.90
15203;DHT22;7702;51.046;5.184;2022-07-05T20:54:58;16.20;99.90
15203;DHT22;7702;51.046;5.184;2022-07-05T20:57:24;16.10;99.90
15203;DHT22;7702;51.046;5.184;2022-07-05T20:59:50;16.20;99.90
15203;DHT22;7702;51.046;5.184;2022-07-05T21:02:16;16.20;99.90
15203;DHT22;7702;51.046;5.184;2022-07-05T21:04:41;16.10;99.90
15203;DHT22;7702;51.046;5.184;2022-07-05T21:07:07;16.10;99.90
15203;DHT22;7702;51.046;5.184;2022-07-05T21:09:34;16.10;99.90
15203;DHT22;7702;51.046;5.184;2022-07-05T21:12:00;16.00;99.90
15203;DHT22;7702;51.046;5.184;2022-07-05T21:14:25;16.00;99.90
15203;DHT22;7702;51.046;5.184;2022-07-05T21:16:51;15.90;99.90
15203;DHT22;7702;51.046;5.184;2022-07-05T21:19:17;15.90;99.90
15203;DHT22;7702;51.046;5.184;2022-07-05T21:21:43;15.80;99.90
15203;DHT22;7702;51.046;5.184;2022-07-05T21:24:08;15.70;99.90
15203;DHT22;7702;51.046;5.184;2022-07-05T21:26:34;15.70;99.90
15203;DHT22;7702;51.046;5.184;2022-07-05T21:29:00;15.70;99.90
15203;DHT22;7702;51.046;5.184;2022-07-05T21:31:25;15.60;99.90
15203;DHT22;7702;51.046;5.184;2022-07-05T21:33:51;15.50;99.90
15203;DHT22;7702;51.046;5.184;2022-07-05T21:36:17;15.50;99.90
15203;DHT22;7702;51.046;5.184;2022-07-05T21:38:42;15.50;99.90
15203;DHT22;7702;51.046;5.184;2022-07-05T21:41:09;15.40;99.90
15203;DHT22;7702;51.046;5.184;2022-07-05T21:43:37;15.40;99.90
15203;DHT22;7702;51.046;5.184;2022-07-05T21:46:02;15.40;99.90
15203;DHT22;7702;51.046;5.184;2022-07-05T21:48:28;15.30;99.90
15203;DHT22;7702;51.046;5.184;2022-07-05T21:50:54;15.20;99.90
15203;DHT22;7702;51.046;5.184;2022-07-05T21:53:19;15.30;99.90
15203;DHT22;7702;51.046;5.184;2022-07-05T21:55:45;15.20;99.90
15203;DHT22;7702;51.046;5.184;2022-07-05T21:58:11;15.20;99.90
15203;DHT22;7702;51.046;5.184;2022-07-05T22:00:37;15.20;99.90
15203;DHT22;7702;51.046;5.184;2022-07-05T22:03:21;15.00;99.90
15203;DHT22;7702;51.046;5.184;2022-07-05T22:06:05;14.90;99.90
15203;DHT22;7702;51.046;5.184;2022-07-05T22:08:31;14.90;99.90
15203;DHT22;7702;51.046;5.184;2022-07-05T22:10:57;14.90;99.90
15203;DHT22;7702;51.046;5.184;2022-07-05T22:13:41;14.90;99.90
15203;DHT22;7702;51.046;5.184;2022-07-05T22:16:06;14.80;99.90
15203;DHT22;7702;51.046;5.184;2022-07-05T22:18:32;14.80;99.90
15203;DHT22;7702;51.046;5.184;2022-07-05T22:20:58;14.80;99.90
15203;DHT22;7702;51.046;5.184;2022-07-05T22:23:24;14.90;99.90
15203;DHT22;7702;51.046;5.184;2022-07-05T22:25:50;14.80;99.90
15203;DHT22;7702;51.046;5.184;2022-07-05T22:28:15;14.70;99.90
15203;DHT22;7702;51.046;5.184;2022-07-05T22:30:41;14.80;99.90
15203;DHT22;7702;51.046;5.184;2022-07-05T22:33:07;14.80;99.90
15203;DHT22;7702;51.046;5.184;2022-07-05T22:35:32;14.70;99.90
15203;DHT22;7702;51.046;5.184;2022-07-05T22:37:58;14.60;99.90
15203;DHT22;7702;51.046;5.184;2022-07-05T22:40:24;14.60;99.90
15203;DHT22;7702;51.046;5.184;2022-07-05T22:42:50;14.50;99.90
15203;DHT22;7702;51.046;5.184;2022-07-05T22:45:15;14.50;99.90
15203;DHT22;7702;51.046;5.184;2022-07-05T22:47:41;14.40;99.90
15203;DHT22;7702;51.046;5.184;2022-07-05T22:50:07;14.30;99.90
15203;DHT22;7702;51.046;5.184;2022-07-05T22:52:33;14.30;99.90
15203;DHT22;7702;51.046;5.184;2022-07-05T22:54:58;14.20;99.90
15203;DHT22;7702;51.046;5.184;2022-07-05T22:57:24;14.20;99.90
15203;DHT22;7702;51.046;5.184;2022-07-05T22:59:50;14.10;99.90
15203;DHT22;7702;51.046;5.184;2022-07-05T23:02:16;14.00;99.90
15203;DHT22;7702;51.046;5.184;2022-07-05T23:04:42;13.90;99.90
15203;DHT22;7702;51.046;5.184;2022-07-05T23:07:07;13.80;99.90
15203;DHT22;7702;51.046;5.184;2022-07-05T23:09:33;13.80;99.90
15203;DHT22;7702;51.046;5.184;2022-07-05T23:11:58;13.70;99.90
15203;DHT22;7702;51.046;5.184;2022-07-05T23:14:24;13.70;99.90
15203;DHT22;7702;51.046;5.184;2022-07-05T23:16:50;13.60;99.90
15203;DHT22;7702;51.046;5.184;2022-07-05T23:19:16;13.60;99.90
15203;DHT22;7702;51.046;5.184;2022-07-05T23:21:41;13.50;99.90
15203;DHT22;7702;51.046;5.184;2022-07-05T23:24:07;13.40;99.90
15203;DHT22;7702;51.046;5.184;2022-07-05T23:26:51;13.40;99.90
15203;DHT22;7702;51.046;5.184;2022-07-05T23:29:17;13.40;99.90
15203;DHT22;7702;51.046;5.184;2022-07-05T23:31:43;13.40;99.90
15203;DHT22;7702;51.046;5.184;2022-07-05T23:34:08;13.40;99.90
15203;DHT22;7702;51.046;5.184;2022-07-05T23:36:34;13.40;99.90
15203;DHT22;7702;51.046;5.184;2022-07-05T23:38:59;13.40;99.90
15203;DHT22;7702;51.046;5.184;2022-07-05T23:41:26;13.40;99.90
15203;DHT22;7702;51.046;5.184;2022-07-05T23:43:51;13.30;99.90
15203;DHT22;7702;51.046;5.184;2022-07-05T23:46:17;13.20;99.90
15203;DHT22;7702;51.046;5.184;2022-07-05T23:48:42;13.20;99.90
15203;DHT22;7702;51.046;5.184;2022-07-05T23:51:08;13.10;99.90
15203;DHT22;7702;51.046;5.184;2022-07-05T23:53:33;13.10;99.90
15203;DHT22;7702;51.046;5.184;2022-07-05T23:55:59;13.00;99.90
15203;DHT22;7702;51.046;5.184;2022-07-05T23:58:25;12.90;99.90
